In Rescue
 
Open Full Screen Window  High Contrast Mode
Wind Gusting 00 knots
11
November 14, 2019 3:01 PM EST
Weather Information
Wind Direction
  240 °
Wind Speed
  11 kt (13 mph)
Wind Gust
  00 kt (0 mph)
Altimeter
30.10 in
Visibility
10 SM
Temperature
-01° C
30° F
Dewpoint
-05° C
23° F
Humidity
75%
1hr Rain Fall
00.00 in.
24hr Rain Fall
00.00 in.
Sky Condition
Overcast @ 3,300 ft
VFR

METAR KOSC 142001Z AUTO 24011KT 10SM OVC033 M01/M05 A3010 RMK AO2 T10151050

FAA Disclaimer: The data displayed is for advisory purposes only and is not to be used for flight planning or operations.